sensor_id;sensor_type;location;lat;lon;timestamp;pressure;altitude;pressure_sealevel;temperature;humidity
19447;BME280;9862;49.462;11.054;2023-03-21T00:00:55;98269.69;;;11.74;100.00
19447;BME280;9862;49.462;11.054;2023-03-21T00:03:22;98263.13;;;11.70;100.00
19447;BME280;9862;49.462;11.054;2023-03-21T00:05:49;98259.44;;;11.65;100.00
19447;BME280;9862;49.462;11.054;2023-03-21T00:08:18;98259.91;;;11.55;100.00
19447;BME280;9862;49.462;11.054;2023-03-21T00:10:45;98267.72;;;11.43;100.00
19447;BME280;9862;49.462;11.054;2023-03-21T00:13:11;98264.44;;;11.28;100.00
19447;BME280;9862;49.462;11.054;2023-03-21T00:15:38;98267.75;;;11.24;100.00
19447;BME280;9862;49.462;11.054;2023-03-21T00:18:15;98266.94;;;11.16;100.00
19447;BME280;9862;49.462;11.054;2023-03-21T00:20:42;98263.88;;;11.13;100.00
19447;BME280;9862;49.462;11.054;2023-03-21T00:23:11;98271.44;;;11.16;100.00
19447;BME280;9862;49.462;11.054;2023-03-21T00:25:38;98266.94;;;11.10;100.00
19447;BME280;9862;49.462;11.054;2023-03-21T00:28:04;98262.22;;;11.12;100.00
19447;BME280;9862;49.462;11.054;2023-03-21T00:30:31;98262.22;;;11.12;100.00
19447;BME280;9862;49.462;11.054;2023-03-21T00:32:58;98264.91;;;11.12;100.00
19447;BME280;9862;49.462;11.054;2023-03-21T00:35:25;98258.72;;;11.18;100.00
19447;BME280;9862;49.462;11.054;2023-03-21T00:37:52;98261.22;;;11.20;100.00
19447;BME280;9862;49.462;11.054;2023-03-21T00:40:19;98255.47;;;11.29;100.00
19447;BME280;9862;49.462;11.054;2023-03-21T00:42:45;98258.09;;;11.36;100.00
19447;BME280;9862;49.462;11.054;2023-03-21T00:45:12;98252.38;;;11.32;100.00
19447;BME280;9862;49.462;11.054;2023-03-21T00:47:39;98252.53;;;11.37;100.00
19447;BME280;9862;49.462;11.054;2023-03-21T00:50:07;98241.06;;;11.43;100.00
19447;BME280;9862;49.462;11.054;2023-03-21T00:52:35;98240.69;;;11.40;100.00
19447;BME280;9862;49.462;11.054;2023-03-21T00:55:01;98239.47;;;11.29;100.00
19447;BME280;9862;49.462;11.054;2023-03-21T00:57:28;98232.72;;;11.20;100.00
19447;BME280;9862;49.462;11.054;2023-03-21T00:59:55;98238.66;;;11.22;100.00
19447;BME280;9862;49.462;11.054;2023-03-21T01:02:22;98229.63;;;11.30;100.00
19447;BME280;9862;49.462;11.054;2023-03-21T01:04:51;98226.91;;;11.50;100.00
19447;BME280;9862;49.462;11.054;2023-03-21T01:07:17;98224.41;;;11.55;100.00
19447;BME280;9862;49.462;11.054;2023-03-21T01:09:45;98219.28;;;11.60;100.00
19447;BME280;9862;49.462;11.054;2023-03-21T01:12:12;98216.34;;;11.74;100.00
19447;BME280;9862;49.462;11.054;2023-03-21T01:14:38;98218.84;;;11.69;100.00
19447;BME280;9862;49.462;11.054;2023-03-21T01:17:05;98221.31;;;11.71;100.00
19447;BME280;9862;49.462;11.054;2023-03-21T01:19:31;98217.59;;;11.79;100.00
19447;BME280;9862;49.462;11.054;2023-03-21T01:21:58;98221.69;;;11.81;100.00
19447;BME280;9862;49.462;11.054;2023-03-21T01:24:25;98217.19;;;11.82;100.00
19447;BME280;9862;49.462;11.054;2023-03-21T01:26:53;98219.19;;;11.86;100.00
19447;BME280;9862;49.462;11.054;2023-03-21T01:29:19;98214.06;;;11.91;100.00
19447;BME280;9862;49.462;11.054;2023-03-21T01:31:46;98217.94;;;11.95;100.00
19447;BME280;9862;49.462;11.054;2023-03-21T01:34:13;98209.69;;;12.03;100.00
19447;BME280;9862;49.462;11.054;2023-03-21T01:36:39;98201.94;;;11.95;100.00
19447;BME280;9862;49.462;11.054;2023-03-21T01:39:06;98210.19;;;11.87;100.00
19447;BME280;9862;49.462;11.054;2023-03-21T01:41:35;98213.06;;;11.79;100.00
19447;BME280;9862;49.462;11.054;2023-03-21T01:44:04;98211.88;;;11.68;100.00
19447;BME280;9862;49.462;11.054;2023-03-21T01:46:35;98208.41;;;11.68;100.00
19447;BME280;9862;49.462;11.054;2023-03-21T01:49:08;98207.16;;;11.70;100.00
19447;BME280;9862;49.462;11.054;2023-03-21T01:51:38;98201.41;;;11.80;100.00
19447;BME280;9862;49.462;11.054;2023-03-21T01:54:09;98204.88;;;11.87;100.00
19447;BME280;9862;49.462;11.054;2023-03-21T01:56:39;98201.53;;;11.92;100.00
19447;BME280;9862;49.462;11.054;2023-03-21T01:59:13;98195.38;;;11.98;100.00
19447;BME280;9862;49.462;11.054;2023-03-21T02:01:43;98187.75;;;12.01;100.00
19447;BME280;9862;49.462;11.054;2023-03-21T02:04:10;98192.84;;;12.10;100.00
19447;BME280;9862;49.462;11.054;2023-03-21T02:06:42;98183.56;;;12.19;100.00
19447;BME280;9862;49.462;11.054;2023-03-21T02:09:18;98191.59;;;12.12;100.00
19447;BME280;9862;49.462;11.054;2023-03-21T02:11:45;98184.34;;;12.26;100.00
19447;BME280;9862;49.462;11.054;2023-03-21T02:14:15;98182.72;;;12.18;100.00
19447;BME280;9862;49.462;11.054;2023-03-21T02:16:50;98180.75;;;12.07;100.00
19447;BME280;9862;49.462;11.054;2023-03-21T02:19:37;98182.16;;;12.10;100.00
19447;BME280;9862;49.462;11.054;2023-03-21T02:22:33;98187.56;;;11.96;100.00
19447;BME280;9862;49.462;11.054;2023-03-21T02:28:14;98181.81;;;11.99;100.00
19447;BME280;9862;49.462;11.054;2023-03-21T02:31:04;98188.22;;;11.92;100.00
19447;BME280;9862;49.462;11.054;2023-03-21T02:39:12;98178.19;;;11.87;100.00
19447;BME280;9862;49.462;11.054;2023-03-21T02:41:46;98181.47;;;11.89;100.00
19447;BME280;9862;49.462;11.054;2023-03-21T02:44:18;98176.88;;;11.96;100.00
19447;BME280;9862;49.462;11.054;2023-03-21T02:46:51;98176.88;;;11.96;100.00
19447;BME280;9862;49.462;11.054;2023-03-21T02:49:25;98180.94;;;12.06;100.00
19447;BME280;9862;49.462;11.054;2023-03-21T02:51:52;98190.44;;;11.95;100.00
19447;BME280;9862;49.462;11.054;2023-03-21T02:54:23;98188.78;;;12.00;100.00
19447;BME280;9862;49.462;11.054;2023-03-21T02:56:52;98182.59;;;12.07;100.00
19447;BME280;9862;49.462;11.054;2023-03-21T02:59:21;98184.28;;;11.94;100.00
19447;BME280;9862;49.462;11.054;2023-03-21T03:01:50;98181.47;;;11.89;100.00
19447;BME280;9862;49.462;11.054;2023-03-21T03:04:19;98176.34;;;11.88;100.00
19447;BME280;9862;49.462;11.054;2023-03-21T03:07:00;98175.31;;;11.75;100.00
19447;BME280;9862;49.462;11.054;2023-03-21T03:09:37;98183.31;;;11.75;100.00
19447;BME280;9862;49.462;11.054;2023-03-21T03:12:10;98177.19;;;11.75;100.00
19447;BME280;9862;49.462;11.054;2023-03-21T03:14:49;98174.50;;;11.75;100.00
19447;BME280;9862;49.462;11.054;2023-03-21T03:17:22;98167.97;;;11.78;100.00
19447;BME280;9862;49.462;11.054;2023-03-21T03:20:04;98172.19;;;11.98;100.00
19447;BME280;9862;49.462;11.054;2023-03-21T03:22:39;98166.59;;;12.07;100.00
19447;BME280;9862;49.462;11.054;2023-03-21T03:25:11;98170.13;;;11.94;100.00
19447;BME280;9862;49.462;11.054;2023-03-21T03:27:41;98177.41;;;11.80;100.00
19447;BME280;9862;49.462;11.054;2023-03-21T03:30:10;98165.06;;;11.79;100.00
19447;BME280;9862;49.462;11.054;2023-03-21T03:32:41;98180.06;;;11.80;100.00
19447;BME280;9862;49.462;11.054;2023-03-21T03:35:12;98168.59;;;11.80;100.00
19447;BME280;9862;49.462;11.054;2023-03-21T03:37:40;98171.63;;;11.76;100.00
19447;BME280;9862;49.462;11.054;2023-03-21T03:40:14;98174.28;;;11.76;100.00
19447;BME280;9862;49.462;11.054;2023-03-21T03:42:45;98163.44;;;11.78;100.00
19447;BME280;9862;49.462;11.054;2023-03-21T03:45:13;98166.75;;;11.80;100.00
19447;BME280;9862;49.462;11.054;2023-03-21T03:47:43;98158.31;;;11.83;100.00
19447;BME280;9862;49.462;11.054;2023-03-21T03:50:17;98160.53;;;11.86;100.00
19447;BME280;9862;49.462;11.054;2023-03-21T03:52:49;98164.44;;;11.90;100.00
19447;BME280;9862;49.462;11.054;2023-03-21T03:55:20;98159.69;;;11.92;100.00
19447;BME280;9862;49.462;11.054;2023-03-21T03:57:48;98162.97;;;11.94;100.00
19447;BME280;9862;49.462;11.054;2023-03-21T04:00:15;98161.72;;;11.97;100.00
19447;BME280;9862;49.462;11.054;2023-03-21T04:02:43;98157.59;;;12.01;100.00
19447;BME280;9862;49.462;11.054;2023-03-21T04:05:10;98154.28;;;12.06;100.00
19447;BME280;9862;49.462;11.054;2023-03-21T04:07:37;98159.59;;;12.06;100.00
19447;BME280;9862;49.462;11.054;2023-03-21T04:10:04;98156.94;;;12.06;100.00
19447;BME280;9862;49.462;11.054;2023-03-21T04:12:32;98152.22;;;12.08;100.00
19447;BME280;9862;49.462;11.054;2023-03-21T04:14:59;98154.28;;;12.06;100.00
19447;BME280;9862;49.462;11.054;2023-03-21T04:17:26;98150.59;;;12.07;100.00
19447;BME280;9862;49.462;11.054;2023-03-21T04:19:53;98153.16;;;12.20;100.00
19447;BME280;9862;49.462;11.054;2023-03-21T04:22:19;98153.03;;;12.08;100.00
19447;BME280;9862;49.462;11.054;2023-03-21T04:24:46;98146.47;;;12.04;100.00
19447;BME280;9862;49.462;11.054;2023-03-21T04:27:13;98156.78;;;12.00;100.00
19447;BME280;9862;49.462;11.054;2023-03-21T04:29:41;98155.97;;;12.00;100.00
19447;BME280;9862;49.462;11.054;2023-03-21T04:32:07;98150.03;;;11.98;100.00
19447;BME280;9862;49.462;11.054;2023-03-21T04:34:40;98155.16;;;11.99;100.00
19447;BME280;9862;49.462;11.054;2023-03-21T04:37:08;98151.88;;;11.97;100.00
19447;BME280;9862;49.462;11.054;2023-03-21T04:39:36;98151.06;;;11.97;100.00
19447;BME280;9862;49.462;11.054;2023-03-21T04:42:03;98151.88;;;11.97;100.00
19447;BME280;9862;49.462;11.054;2023-03-21T04:44:30;98154.72;;;11.96;100.00
19447;BME280;9862;49.462;11.054;2023-03-21T04:46:58;98153.91;;;11.95;100.00
19447;BME280;9862;49.462;11.054;2023-03-21T04:49:25;98146.97;;;11.94;100.00
19447;BME280;9862;49.462;11.054;2023-03-21T04:51:52;98156.00;;;11.93;100.00
19447;BME280;9862;49.462;11.054;2023-03-21T04:54:18;98146.56;;;11.91;100.00
19447;BME280;9862;49.462;11.054;2023-03-21T04:56:45;98145.75;;;11.90;100.00
19447;BME280;9862;49.462;11.054;2023-03-21T04:59:14;98145.75;;;11.90;100.00
19447;BME280;9862;49.462;11.054;2023-03-21T05:01:41;98144.13;;;11.89;100.00
19447;BME280;9862;49.462;11.054;2023-03-21T05:04:10;98136.72;;;11.91;100.00
19447;BME280;9862;49.462;11.054;2023-03-21T05:06:36;98136.72;;;11.91;100.00
19447;BME280;9862;49.462;11.054;2023-03-21T05:09:04;98139.59;;;11.90;100.00
19447;BME280;9862;49.462;11.054;2023-03-21T05:11:32;98144.13;;;11.89;100.00
19447;BME280;9862;49.462;11.054;2023-03-21T05:14:03;98138.78;;;11.89;100.00
19447;BME280;9862;49.462;11.054;2023-03-21T05:16:29;98140.88;;;11.87;100.00
19447;BME280;9862;49.462;11.054;2023-03-21T05:18:56;98146.19;;;11.87;100.00
19447;BME280;9862;49.462;11.054;2023-03-21T05:21:29;98153.16;;;11.88;100.00
19447;BME280;9862;49.462;11.054;2023-03-21T05:24:06;98151.31;;;11.89;100.00
19447;BME280;9862;49.462;11.054;2023-03-21T05:26:36;98155.81;;;11.88;100.00
19447;BME280;9862;49.462;11.054;2023-03-21T05:29:03;98157.69;;;11.88;100.00
19447;BME280;9862;49.462;11.054;2023-03-21T05:31:30;98156.00;;;11.93;100.00
19447;BME280;9862;49.462;11.054;2023-03-21T05:33:57;98162.34;;;11.92;100.00
19447;BME280;9862;49.462;11.054;2023-03-21T05:36:24;98165.03;;;11.92;100.00
19447;BME280;9862;49.462;11.054;2023-03-21T05:38:51;98157.47;;;11.89;100.00
19447;BME280;9862;49.462;11.054;2023-03-21T05:41:18;98165.88;;;11.86;100.00
19447;BME280;9862;49.462;11.054;2023-03-21T05:43:45;98155.19;;;11.86;100.00
19447;BME280;9862;49.462;11.054;2023-03-21T05:46:12;98156.88;;;11.87;100.00
19447;BME280;9862;49.462;11.054;2023-03-21T05:48:38;98165.47;;;11.89;100.00
19447;BME280;9862;49.462;11.054;2023-03-21T05:51:05;98150.66;;;11.93;100.00
19447;BME280;9862;49.462;11.054;2023-03-21T05:53:32;98155.56;;;11.96;100.00
19447;BME280;9862;49.462;11.054;2023-03-21T05:55:59;98165.63;;;11.94;100.00
19447;BME280;9862;49.462;11.054;2023-03-21T05:58:26;98157.63;;;11.94;100.00
19447;BME280;9862;49.462;11.054;2023-03-21T06:00:52;98171.16;;;11.99;100.00
19447;BME280;9862;49.462;11.054;2023-03-21T06:03:19;98167.25;;;11.95;100.00
19447;BME280;9862;49.462;11.054;2023-03-21T06:05:46;98169.28;;;12.00;100.00
19447;BME280;9862;49.462;11.054;2023-03-21T06:08:13;98176.03;;;12.02;100.00
19447;BME280;9862;49.462;11.054;2023-03-21T06:10:39;98170.72;;;12.02;100.00
19447;BME280;9862;49.462;11.054;2023-03-21T06:13:07;98174.53;;;12.13;100.00
19447;BME280;9862;49.462;11.054;2023-03-21T06:15:33;98170.50;;;12.04;100.00
19447;BME280;9862;49.462;11.054;2023-03-21T06:18:00;98174.78;;;12.05;100.00
19447;BME280;9862;49.462;11.054;2023-03-21T06:20:27;98174.41;;;12.01;100.00
19447;BME280;9862;49.462;11.054;2023-03-21T06:22:53;98173.56;;;12.08;100.00
19447;BME280;9862;49.462;11.054;2023-03-21T06:25:20;98172.00;;;11.87;100.00
19447;BME280;9862;49.462;11.054;2023-03-21T06:27:46;98175.25;;;11.95;100.00
19447;BME280;9862;49.462;11.054;2023-03-21T06:30:16;98174.66;;;11.93;100.00
19447;BME280;9862;49.462;11.054;2023-03-21T06:32:43;98182.31;;;11.83;100.00
19447;BME280;9862;49.462;11.054;2023-03-21T06:35:09;98179.00;;;11.88;100.00
19447;BME280;9862;49.462;11.054;2023-03-21T06:37:36;98173.69;;;11.74;100.00
19447;BME280;9862;49.462;11.054;2023-03-21T06:40:04;98181.09;;;11.72;100.00
19447;BME280;9862;49.462;11.054;2023-03-21T06:42:33;98170.66;;;11.64;100.00
19447;BME280;9862;49.462;11.054;2023-03-21T06:45:00;98172.00;;;11.93;100.00
19447;BME280;9862;49.462;11.054;2023-03-21T06:47:28;98184.38;;;11.81;100.00
19447;BME280;9862;49.462;11.054;2023-03-21T06:49:55;98174.94;;;11.72;100.00
19447;BME280;9862;49.462;11.054;2023-03-21T06:52:22;98172.91;;;11.67;100.00
19447;BME280;9862;49.462;11.054;2023-03-21T06:54:48;98173.69;;;11.74;100.00
19447;BME280;9862;49.462;11.054;2023-03-21T06:57:15;98176.28;;;11.94;100.00
19447;BME280;9862;49.462;11.054;2023-03-21T06:59:42;98171.97;;;12.00;100.00
19447;BME280;9862;49.462;11.054;2023-03-21T07:02:09;98167.25;;;11.95;100.00
19447;BME280;9862;49.462;11.054;2023-03-21T07:04:37;98170.78;;;11.89;100.00
19447;BME280;9862;49.462;11.054;2023-03-21T07:07:04;98175.69;;;11.92;100.00
19447;BME280;9862;49.462;11.054;2023-03-21T07:09:30;98177.22;;;12.13;100.00
19447;BME280;9862;49.462;11.054;2023-03-21T07:11:57;98177.66;;;12.10;100.00
19447;BME280;9862;49.462;11.054;2023-03-21T07:14:23;98171.50;;;12.10;100.00
19447;BME280;9862;49.462;11.054;2023-03-21T07:16:50;98179.50;;;12.10;100.00
19447;BME280;9862;49.462;11.054;2023-03-21T07:19:16;98179.66;;;12.15;100.00
19447;BME280;9862;49.462;11.054;2023-03-21T07:21:44;98175.22;;;12.02;100.00
19447;BME280;9862;49.462;11.054;2023-03-21T07:24:10;98174.84;;;11.98;100.00
19447;BME280;9862;49.462;11.054;2023-03-21T07:26:37;98174.88;;;11.92;100.00
19447;BME280;9862;49.462;11.054;2023-03-21T07:29:03;98176.72;;;11.91;100.00
19447;BME280;9862;49.462;11.054;2023-03-21T07:31:30;98176.88;;;11.96;100.00
19447;BME280;9862;49.462;11.054;2023-03-21T07:33:57;98174.03;;;11.98;100.00
19447;BME280;9862;49.462;11.054;2023-03-21T07:36:23;98164.47;;;12.15;100.00
19447;BME280;9862;49.462;11.054;2023-03-21T07:38:52;98176.84;;;12.35;100.00
19447;BME280;9862;49.462;11.054;2023-03-21T07:41:18;98184.94;;;12.28;100.00
19447;BME280;9862;49.462;11.054;2023-03-21T07:43:45;98183.41;;;12.39;100.00
19447;BME280;9862;49.462;11.054;2023-03-21T07:46:11;98183.78;;;12.42;100.00
19447;BME280;9862;49.462;11.054;2023-03-21T07:48:38;98189.44;;;12.27;100.00
19447;BME280;9862;49.462;11.054;2023-03-21T07:51:05;98183.97;;;12.16;100.00
19447;BME280;9862;49.462;11.054;2023-03-21T07:53:31;98188.22;;;11.92;100.00
19447;BME280;9862;49.462;11.054;2023-03-21T07:55:59;98185.75;;;11.97;100.00
19447;BME280;9862;49.462;11.054;2023-03-21T07:58:26;98175.59;;;12.06;100.00
19447;BME280;9862;49.462;11.054;2023-03-21T08:00:53;98181.69;;;12.19;100.00
19447;BME280;9862;49.462;11.054;2023-03-21T08:03:21;98179.16;;;12.31;100.00
19447;BME280;9862;49.462;11.054;2023-03-21T08:05:48;98189.47;;;12.52;100.00
19447;BME280;9862;49.462;11.054;2023-03-21T08:08:15;98172.31;;;12.67;100.00
19447;BME280;9862;49.462;11.054;2023-03-21T08:10:41;98181.69;;;12.76;100.00
19447;BME280;9862;49.462;11.054;2023-03-21T08:13:11;98184.09;;;12.59;100.00
19447;BME280;9862;49.462;11.054;2023-03-21T08:15:38;98181.56;;;12.39;100.00
19447;BME280;9862;49.462;11.054;2023-03-21T08:18:06;98173.72;;;12.44;100.00
19447;BME280;9862;49.462;11.054;2023-03-21T08:20:33;98175.63;;;12.37;100.00
19447;BME280;9862;49.462;11.054;2023-03-21T08:23:00;98170.19;;;12.50;100.00
19447;BME280;9862;49.462;11.054;2023-03-21T08:25:26;98177.97;;;12.27;100.00
19447;BME280;9862;49.462;11.054;2023-03-21T08:27:53;98180.75;;;12.39;100.00
19447;BME280;9862;49.462;11.054;2023-03-21T08:30:23;98177.84;;;12.40;100.00
19447;BME280;9862;49.462;11.054;2023-03-21T08:32:55;98169.69;;;12.60;100.00
19447;BME280;9862;49.462;11.054;2023-03-21T08:35:22;98163.44;;;12.48;100.00
19447;BME280;9862;49.462;11.054;2023-03-21T08:37:48;98163.81;;;12.51;100.00
19447;BME280;9862;49.462;11.054;2023-03-21T08:40:16;98164.34;;;12.60;100.00
19447;BME280;9862;49.462;11.054;2023-03-21T08:42:44;98158.06;;;12.73;100.00
19447;BME280;9862;49.462;11.054;2023-03-21T08:45:13;98157.22;;;12.79;100.00
19447;BME280;9862;49.462;11.054;2023-03-21T08:47:42;98159.00;;;12.85;100.00
19447;BME280;9862;49.462;11.054;2023-03-21T08:50:11;98154.09;;;12.82;100.00
19447;BME280;9862;49.462;11.054;2023-03-21T08:52:38;98160.19;;;12.89;100.00
19447;BME280;9862;49.462;11.054;2023-03-21T08:55:06;98154.66;;;13.09;100.00
19447;BME280;9862;49.462;11.054;2023-03-21T08:57:33;98158.47;;;13.20;100.00
19447;BME280;9862;49.462;11.054;2023-03-21T08:59:59;98149.84;;;13.17;100.00
19447;BME280;9862;49.462;11.054;2023-03-21T09:02:26;98151.03;;;13.03;100.00
19447;BME280;9862;49.462;11.054;2023-03-21T09:04:54;98148.50;;;13.08;100.00
19447;BME280;9862;49.462;11.054;2023-03-21T09:07:23;98154.94;;;12.57;100.00
19447;BME280;9862;49.462;11.054;2023-03-21T09:09:50;98149.91;;;12.68;100.00
19447;BME280;9862;49.462;11.054;2023-03-21T09:12:17;98153.72;;;12.78;100.00
19447;BME280;9862;49.462;11.054;2023-03-21T09:14:44;98148.31;;;12.85;100.00
19447;BME280;9862;49.462;11.054;2023-03-21T09:17:11;98149.06;;;12.92;100.00
19447;BME280;9862;49.462;11.054;2023-03-21T09:19:37;98145.28;;;13.00;100.00
19447;BME280;9862;49.462;11.054;2023-03-21T09:22:06;98147.31;;;13.04;100.00
19447;BME280;9862;49.462;11.054;2023-03-21T09:24:35;98149.97;;;12.86;100.00
19447;BME280;9862;49.462;11.054;2023-03-21T09:27:02;98136.50;;;12.93;100.00
19447;BME280;9862;49.462;11.054;2023-03-21T09:29:28;98143.16;;;13.08;100.00
19447;BME280;9862;49.462;11.054;2023-03-21T09:31:56;98139.16;;;13.17;100.00
19447;BME280;9862;49.462;11.054;2023-03-21T09:34:24;98137.38;;;13.30;100.00
19447;BME280;9862;49.462;11.054;2023-03-21T09:36:51;98133.38;;;13.39;100.00
19447;BME280;9862;49.462;11.054;2023-03-21T09:39:22;98128.53;;;13.66;100.00
19447;BME280;9862;49.462;11.054;2023-03-21T09:42:00;98127.75;;;13.77;100.00
19447;BME280;9862;49.462;11.054;2023-03-21T09:44:37;98127.72;;;13.65;100.00
19447;BME280;9862;49.462;11.054;2023-03-21T09:47:14;98129.34;;;13.66;100.00
19447;BME280;9862;49.462;11.054;2023-03-21T09:49:48;98122.34;;;13.65;100.00
19447;BME280;9862;49.462;11.054;2023-03-21T09:52:18;98122.06;;;13.73;100.00
19447;BME280;9862;49.462;11.054;2023-03-21T09:54:49;98121.50;;;13.83;100.00
19447;BME280;9862;49.462;11.054;2023-03-21T09:57:26;98119.00;;;14.00;100.00
19447;BME280;9862;49.462;11.054;2023-03-21T09:59:57;98118.63;;;13.96;100.00
19447;BME280;9862;49.462;11.054;2023-03-21T10:02:37;98119.47;;;14.09;100.00
19447;BME280;9862;49.462;11.054;2023-03-21T10:05:12;98114.91;;;13.97;100.00
19447;BME280;9862;49.462;11.054;2023-03-21T10:07:43;98106.66;;;13.99;100.00
19447;BME280;9862;49.462;11.054;2023-03-21T10:10:18;98110.38;;;13.98;100.00
19447;BME280;9862;49.462;11.054;2023-03-21T10:12:45;98107.06;;;13.72;100.00
19447;BME280;9862;49.462;11.054;2023-03-21T10:15:18;98091.50;;;13.51;90.77
19447;BME280;9862;49.462;11.054;2023-03-21T10:17:49;98095.47;;;13.60;88.87
19447;BME280;9862;49.462;11.054;2023-03-21T10:20:18;98093.69;;;13.72;93.08
19447;BME280;9862;49.462;11.054;2023-03-21T10:22:48;98091.75;;;13.91;99.39
19447;BME280;9862;49.462;11.054;2023-03-21T10:25:19;98083.19;;;14.01;100.00
19447;BME280;9862;49.462;11.054;2023-03-21T10:27:47;98093.75;;;14.08;100.00
19447;BME280;9862;49.462;11.054;2023-03-21T10:30:24;98075.97;;;14.13;100.00
19447;BME280;9862;49.462;11.054;2023-03-21T10:32:51;98081.59;;;14.23;100.00
19447;BME280;9862;49.462;11.054;2023-03-21T10:35:20;98077.13;;;14.17;100.00
19447;BME280;9862;49.462;11.054;2023-03-21T10:37:46;98076.56;;;14.27;100.00
19447;BME280;9862;49.462;11.054;2023-03-21T10:40:15;98066.59;;;14.46;100.00
19447;BME280;9862;49.462;11.054;2023-03-21T10:42:43;98077.44;;;14.51;100.00
19447;BME280;9862;49.462;11.054;2023-03-21T10:45:15;98065.78;;;14.57;99.60
19447;BME280;9862;49.462;11.054;2023-03-21T10:47:46;98059.28;;;14.53;100.00
19447;BME280;9862;49.462;11.054;2023-03-21T10:50:15;98062.91;;;14.70;100.00
19447;BME280;9862;49.462;11.054;2023-03-21T10:52:45;98066.59;;;14.81;95.83
19447;BME280;9862;49.462;11.054;2023-03-21T10:55:20;98068.72;;;14.67;98.07
19447;BME280;9862;49.462;11.054;2023-03-21T10:57:52;98059.63;;;14.80;99.01
19447;BME280;9862;49.462;11.054;2023-03-21T11:00:24;98057.28;;;14.83;95.53
19447;BME280;9862;49.462;11.054;2023-03-21T11:02:53;98056.72;;;14.58;93.01
19447;BME280;9862;49.462;11.054;2023-03-21T11:05:23;98056.25;;;14.61;94.60
19447;BME280;9862;49.462;11.054;2023-03-21T11:08:02;98055.91;;;14.69;93.15
19447;BME280;9862;49.462;11.054;2023-03-21T11:10:32;98046.34;;;14.73;93.80
19447;BME280;9862;49.462;11.054;2023-03-21T11:13:05;98047.50;;;14.89;92.78
19447;BME280;9862;49.462;11.054;2023-03-21T11:15:40;98041.09;;;14.78;95.62
19447;BME280;9862;49.462;11.054;2023-03-21T11:18:17;98040.16;;;14.84;97.15
19447;BME280;9862;49.462;11.054;2023-03-21T11:20:49;98037.00;;;14.76;96.41
19447;BME280;9862;49.462;11.054;2023-03-21T11:23:16;98036.91;;;14.82;96.32
19447;BME280;9862;49.462;11.054;2023-03-21T11:25:47;98032.94;;;14.73;97.92
19447;BME280;9862;49.462;11.054;2023-03-21T11:28:17;98035.75;;;14.78;98.72
19447;BME280;9862;49.462;11.054;2023-03-21T11:30:50;98030.25;;;14.97;99.94
19447;BME280;9862;49.462;11.054;2023-03-21T11:33:19;98027.78;;;15.07;96.39
19447;BME280;9862;49.462;11.054;2023-03-21T11:35:57;98025.06;;;15.18;94.97
19447;BME280;9862;49.462;11.054;2023-03-21T11:38:26;98028.16;;;15.27;93.08
19447;BME280;9862;49.462;11.054;2023-03-21T11:40:57;98014.19;;;15.25;94.18
19447;BME280;9862;49.462;11.054;2023-03-21T11:43:28;98015.34;;;15.29;96.75
19447;BME280;9862;49.462;11.054;2023-03-21T11:45:57;98022.66;;;15.34;96.73
19447;BME280;9862;49.462;11.054;2023-03-21T11:48:25;98011.72;;;15.35;97.55
19447;BME280;9862;49.462;11.054;2023-03-21T11:50:58;98016.19;;;15.46;97.70
19447;BME280;9862;49.462;11.054;2023-03-21T11:53:37;98006.59;;;15.51;96.92
19447;BME280;9862;49.462;11.054;2023-03-21T11:56:22;98005.66;;;15.57;97.11
19447;BME280;9862;49.462;11.054;2023-03-21T11:59:06;97999.94;;;15.65;97.70
19447;BME280;9862;49.462;11.054;2023-03-21T12:01:45;98002.41;;;15.55;99.72
19447;BME280;9862;49.462;11.054;2023-03-21T12:04:20;98002.47;;;15.60;98.67
19447;BME280;9862;49.462;11.054;2023-03-21T12:07:00;97991.19;;;15.58;99.21
19447;BME280;9862;49.462;11.054;2023-03-21T12:09:34;97989.06;;;15.60;99.38
19447;BME280;9862;49.462;11.054;2023-03-21T12:12:11;97980.09;;;15.66;99.58
19447;BME280;9862;49.462;11.054;2023-03-21T12:14:49;97973.56;;;15.62;100.00
19447;BME280;9862;49.462;11.054;2023-03-21T12:17:29;97977.66;;;15.81;97.91
19447;BME280;9862;49.462;11.054;2023-03-21T12:20:08;97966.47;;;15.56;98.69
19447;BME280;9862;49.462;11.054;2023-03-21T12:22:44;97963.44;;;15.64;99.73
19447;BME280;9862;49.462;11.054;2023-03-21T12:25:19;97967.81;;;15.70;98.86
19447;BME280;9862;49.462;11.054;2023-03-21T12:27:53;97956.41;;;15.63;98.31
19447;BME280;9862;49.462;11.054;2023-03-21T12:30:40;97954.41;;;15.70;98.93
19447;BME280;9862;49.462;11.054;2023-03-21T12:33:21;97948.13;;;15.81;98.89
19447;BME280;9862;49.462;11.054;2023-03-21T12:38:45;97944.13;;;16.17;97.28
19447;BME280;9862;49.462;11.054;2023-03-21T12:41:21;97938.09;;;16.27;95.30
19447;BME280;9862;49.462;11.054;2023-03-21T12:43:52;97937.22;;;16.21;96.58
19447;BME280;9862;49.462;11.054;2023-03-21T12:46:25;97941.72;;;16.38;96.83
19447;BME280;9862;49.462;11.054;2023-03-21T12:48:55;97939.28;;;16.36;97.59
19447;BME280;9862;49.462;11.054;2023-03-21T12:51:28;97935.53;;;16.37;96.55
19447;BME280;9862;49.462;11.054;2023-03-21T12:54:01;97931.47;;;16.35;98.13
19447;BME280;9862;49.462;11.054;2023-03-21T12:56:31;97928.75;;;16.51;94.05
19447;BME280;9862;49.462;11.054;2023-03-21T12:59:03;97925.75;;;16.48;94.52
19447;BME280;9862;49.462;11.054;2023-03-21T13:01:35;97925.56;;;16.54;94.77
19447;BME280;9862;49.462;11.054;2023-03-21T13:04:29;97915.34;;;16.51;94.92
19447;BME280;9862;49.462;11.054;2023-03-21T13:06:59;97919.63;;;16.52;96.23
19447;BME280;9862;49.462;11.054;2023-03-21T13:09:33;97916.94;;;16.52;96.71
19447;BME280;9862;49.462;11.054;2023-03-21T13:12:04;97904.88;;;16.55;93.53
19447;BME280;9862;49.462;11.054;2023-03-21T13:14:37;97905.69;;;16.55;95.20
19447;BME280;9862;49.462;11.054;2023-03-21T13:17:10;97900.69;;;16.64;96.30